Share

Chiang Mai, Thailand

ThaiWx Station (ICHANGWA3) Elev 1007 ft | 18.77 °N, 98.97 °E | Change Station

Current weather conditions updated 5 minutes ago

Partly Cloudy
Växlande molnighet
90.7 °F
Feels Like 98 °F
N
3.4
Vind Växlande Vind from N/NO
Gusts 4.7 miles/tim
Soluppgång 6:04 AM
Solnedgång 6:42 PM
Månen Tredje kvarteret

Today is forecast to be Warmer than yesterday. Halvklart, sannolikhet för åskväder..

Lufttryck 29.89 tum
Sikt 6.2 miles
Molnigt Few 4000 ft
Värmeindex 98 °F
Daggpunkt 72 °F
Luftfuktighet 54%
Rainfall 0.00 tum
Snow Depth Not available.
UV 15 out of 16
Pollen Not available.
Air Quality Not available.
Flu Activity Not available.
METAR VTCC 190400Z 11004KT 9999 FEW040 33/19 Q1012 A2989 NOSIG

More Conditions Fewer Conditions

Lufttryck 29.89 tum
Sikt 6.2 miles
Molnigt Few 4000 ft
Värmeindex 98 °F
Daggpunkt 72 °F
Luftfuktighet 54%
Rainfall 0.00 tum
Snow Depth Not available.
UV 15 out of 16
Pollen Not available.
Air Quality Not available.
Flu Activity Not available.
METAR VTCC 190400Z 11004KT 9999 FEW040 33/19 Q1012 A2989 NOSIG

More Conditions Fewer Conditions

10-Day Weather Forecast

Almanac

Astronomi

Apr. 19, 2014 Rise Set
Actual Time 6:04 AM ICT 6:42 PM ICT
Civil Twilight 5:42 AM ICT 7:04 PM ICT
Nautical Twilight 5:15 AM ICT 7:31 PM ICT
Astronomical Twilight 4:49 AM ICT 7:57 PM ICT
Månen 10:36 PM ICT 9:10 AM ICT
Length Of Visible Light 13h 22m
Dagens längd
12h 37m
Tomorrow will be 1m 0s longer.
Tredje kvarteret, 83% of the Moon is Illuminated
Idag
Tredje kvarteret
Apr 22
Sista kvarteret
Apr 29
New
May 6
Första kvarteret
May 14
Fullmåne

Yesterday's Extremes

Country Highs Country Lows

Community

  • Sunset Silhouettes
    Sunset Silhouettes
  • FL sunset Perico Isle
    FL sunset Perico Isle
  • Cloudy spring view
    Cloudy spring view
  • Old barn
    Old barn
  • What's for Lunch?
    What's for Lunch?

WunderPhotos

Upload Photos

1,702,637 photos uploaded!

WunderBlogs® & News

Nearby

Snödjup

Not available.

Coastal Water Temperatures

Plats Temperatur
No Stations Reporting

Earthquake Activity

Stad Distance Mag. Time & Date
No recent earthquake activity has been reported nearby.
Minimum magnitude displayed is 2.5.

Nearby Weather Stations

Station Location Temp Värmeindex Daggpunkt Luftfuktighet Vind Precip. Elev Uppdaterad Type
ThaiWx Station, Chiang Mai 90.7 °F 98 °F 72 °F 54% N/NO  -  3.4 miles/tim 0.00 tum / hr 1007 ft 11:13 AM ICT Normal
Station ThaiWx, Chiang Mai 95.0 °F 105 °F 73 °F 49% NO  -  2.0 miles/tim 0.00 tum / hr 1007 ft 11:15 AM ICT Normal
Nantawan Villiage, Chiang Mai 100.2 °F 107 °F 68 °F 36% S/SO  -  0.0 miles/tim 0.00 tum / hr 1063 ft 11:19 AM ICT Rapid Fire
Grace International School, T. Nong Khwai, A. Hang Dong 94.1 °F 104 °F 74 °F 52% NO  -  6.9 miles/tim 0.00 tum / hr 1033 ft 11:19 AM ICT Rapid Fire

Show More Stations Show Fewer Stations

What do you think?

We're not finished. Please let us know what you like, what you don't like, and what you are still missing.